createdAt,value
2022-10-04T00:01:44.350Z,100440.22
2022-10-04T00:04:22.165Z,100434.28
2022-10-04T00:07:30.467Z,100443.09
2022-10-04T00:10:02.507Z,100441.41
2022-10-04T00:12:49.233Z,100431.84
2022-10-04T00:15:27.369Z,100425.69
2022-10-04T00:18:12.503Z,100412.53
2022-10-04T00:20:51.256Z,100405.38
2022-10-04T00:23:24.117Z,100402.00
2022-10-04T00:26:00.275Z,100399.34
2022-10-04T00:28:27.121Z,100401.25
2022-10-04T00:31:09.254Z,100398.09
2022-10-04T00:33:40.617Z,100380.97
2022-10-04T00:36:25.870Z,100396.16
2022-10-04T00:39:05.079Z,100401.59
2022-10-04T00:41:49.995Z,100399.78
2022-10-04T00:44:22.783Z,100391.72
2022-10-04T00:46:51.993Z,100388.41
2022-10-04T00:49:23.435Z,100369.94
2022-10-04T00:52:05.860Z,100361.34
2022-10-04T00:54:41.645Z,100359.41
2022-10-04T00:57:21.464Z,100338.41
2022-10-04T00:59:53.616Z,100320.78
2022-10-04T01:02:29.609Z,100302.28
2022-10-04T01:05:01.809Z,100308.47
2022-10-04T01:07:38.348Z,100310.38
2022-10-04T01:10:19.488Z,100315.69
2022-10-04T01:13:05.474Z,100298.81
2022-10-04T01:15:44.164Z,100324.59
2022-10-04T01:18:11.191Z,100321.94
2022-10-04T01:20:49.570Z,100324.59
2022-10-04T01:23:50.490Z,100308.69
2022-10-04T01:26:29.742Z,100304.34
2022-10-04T01:29:02.564Z,100301.78
2022-10-04T01:31:31.833Z,100293.22
2022-10-04T01:34:00.544Z,100288.63
2022-10-04T01:36:28.566Z,100289.78
2022-10-04T01:38:55.950Z,100274.09
2022-10-04T01:41:39.260Z,100267.84
2022-10-04T01:44:09.567Z,100271.22
2022-10-04T01:46:39.217Z,100272.19
2022-10-04T01:49:12.771Z,100275.56
2022-10-04T01:51:50.126Z,100266.75
2022-10-04T01:54:20.374Z,100259.66
2022-10-04T01:57:02.598Z,100245.53
2022-10-04T01:59:50.150Z,100249.03
2022-10-04T02:02:40.183Z,100248.19
2022-10-04T02:05:12.006Z,100234.19
2022-10-04T02:07:41.573Z,100229.72
2022-10-04T02:10:18.919Z,100219.97
2022-10-04T02:12:49.637Z,100220.06
2022-10-04T02:15:20.513Z,100215.69
2022-10-04T02:17:49.450Z,100218.34
2022-10-04T02:20:24.217Z,100212.09
2022-10-04T02:22:59.427Z,100210.38
2022-10-04T02:25:27.248Z,100200.63
2022-10-04T02:27:54.243Z,100203.41
2022-10-04T02:30:21.878Z,100189.41
2022-10-04T02:32:58.508Z,100188.53
2022-10-04T02:35:39.038Z,100191.06
2022-10-04T02:38:08.794Z,100168.16
2022-10-04T02:41:00.064Z,100174.31
2022-10-04T02:43:47.551Z,100157.56
2022-10-04T02:46:23.645Z,100160.22
2022-10-04T02:48:56.007Z,100153.06
2022-10-04T02:51:34.258Z,100160.22
2022-10-04T02:54:30.144Z,100139.06
2022-10-04T02:56:58.294Z,100154.03
2022-10-04T02:59:25.986Z,100151.47
2022-10-04T03:01:55.516Z,100137.41
2022-10-04T03:04:25.964Z,100133.88
2022-10-04T03:06:54.237Z,100135.78
2022-10-04T03:09:27.433Z,100115.31
2022-10-04T03:11:56.732Z,100113.59
2022-10-04T03:14:27.114Z,100099.59
2022-10-04T03:16:56.565Z,100084.63
2022-10-04T03:19:29.949Z,100090.78
2022-10-04T03:21:59.984Z,100081.13
2022-10-04T03:24:47.307Z,100062.56
2022-10-04T03:27:22.637Z,100067.03
2022-10-04T03:29:52.013Z,100057.38
2022-10-04T03:32:21.173Z,100052.06
2022-10-04T03:35:17.786Z,100045.06
2022-10-04T03:37:44.829Z,100036.38
2022-10-04T03:40:12.745Z,100031.06
2022-10-04T03:42:40.731Z,100010.69
2022-10-04T03:45:11.786Z,100013.47
2022-10-04T03:47:41.671Z,100004.53
2022-10-04T03:50:17.402Z,100005.50
2022-10-04T03:53:04.618Z,99987.88
2022-10-04T03:55:38.998Z,99979.22
2022-10-04T03:58:07.290Z,99972.91
2022-10-04T04:00:40.517Z,99967.63
2022-10-04T04:03:15.864Z,99957.00
2022-10-04T04:05:53.165Z,99978.22
2022-10-04T04:08:34.598Z,99976.56
2022-10-04T04:11:04.507Z,99964.25
2022-10-04T04:13:54.625Z,99959.78
2022-10-04T04:16:26.432Z,99960.72
2022-10-04T04:18:55.730Z,99969.53
2022-10-04T04:21:26.092Z,99943.00
2022-10-04T04:23:55.662Z,99945.78
2022-10-04T04:26:35.267Z,99942.16
2022-10-04T04:29:17.264Z,99942.28
2022-10-04T04:31:51.346Z,99943.97
2022-10-04T04:34:30.143Z,99937.84
2022-10-04T04:37:05.234Z,99928.16
2022-10-04T04:39:37.612Z,99939.63
2022-10-04T04:42:19.494Z,99940.34
2022-10-04T04:45:00.482Z,99938.78
2022-10-04T04:47:38.618Z,99944.94
2022-10-04T04:50:18.604Z,99944.22
2022-10-04T04:52:48.980Z,99932.63
2022-10-04T04:55:24.855Z,99938.91
2022-10-04T04:57:56.272Z,99939.88
2022-10-04T05:00:36.149Z,99941.66
2022-10-04T05:03:06.659Z,99926.59
2022-10-04T05:05:35.095Z,99919.50
2022-10-04T05:08:11.110Z,99923.72
2022-10-04T05:10:41.043Z,99915.63
2022-10-04T05:13:10.962Z,99919.00
2022-10-04T05:15:40.766Z,99912.88
2022-10-04T05:18:33.425Z,99901.28
2022-10-04T05:21:05.487Z,99916.25
2022-10-04T05:23:34.035Z,99910.09
2022-10-04T05:26:04.498Z,99898.03
2022-10-04T05:28:31.902Z,99904.91
2022-10-04T05:31:28.050Z,99918.91
2022-10-04T05:33:58.318Z,99911.78
2022-10-04T05:37:06.842Z,99904.78
2022-10-04T05:40:16.188Z,99894.88
2022-10-04T05:42:45.713Z,99909.00
2022-10-04T05:45:18.760Z,99897.44
2022-10-04T05:47:49.407Z,99894.56
2022-10-04T05:50:35.945Z,99879.59
2022-10-04T05:53:21.756Z,99883.94
2022-10-04T05:55:48.911Z,99886.47
2022-10-04T05:58:18.692Z,99888.97
2022-10-04T06:00:54.378Z,99890.59
2022-10-04T06:03:53.313Z,99895.75
2022-10-04T06:06:41.010Z,99901.06
2022-10-04T06:09:30.183Z,99907.22
2022-10-04T06:12:06.327Z,99909.88
2022-10-04T06:14:48.564Z,99903.72
2022-10-04T06:17:18.931Z,99924.59
2022-10-04T06:20:10.550Z,99903.50
2022-10-04T06:22:47.277Z,99907.81
2022-10-04T06:25:22.800Z,99903.25
2022-10-04T06:28:01.855Z,99881.88
2022-10-04T06:30:42.055Z,99899.50
2022-10-04T06:33:47.544Z,99910.00
2022-10-04T06:36:23.457Z,99896.97
2022-10-04T06:39:05.515Z,99890.94
2022-10-04T06:41:38.452Z,99892.72
2022-10-04T06:44:46.169Z,99895.53
2022-10-04T06:47:33.165Z,99895.53
2022-10-04T06:50:15.180Z,99887.66
2022-10-04T06:52:42.047Z,99895.75
2022-10-04T06:55:16.682Z,99899.25
2022-10-04T06:58:17.402Z,99896.72
2022-10-04T07:01:01.196Z,99899.50
2022-10-04T07:03:33.810Z,99902.25
2022-10-04T07:06:07.760Z,99897.94
2022-10-04T07:08:50.524Z,99890.91
2022-10-04T07:11:24.950Z,99894.56
2022-10-04T07:13:58.511Z,99898.03
2022-10-04T07:16:46.901Z,99887.53
2022-10-04T07:19:19.596Z,99892.84
2022-10-04T07:22:10.606Z,99899.13
2022-10-04T07:24:56.737Z,99907.91
2022-10-04T07:27:34.947Z,99904.56
2022-10-04T07:30:08.128Z,99909.72
2022-10-04T07:32:44.343Z,99901.06
2022-10-04T07:35:13.357Z,99904.56
2022-10-04T07:38:11.490Z,99907.22
2022-10-04T07:40:45.602Z,99900.19
2022-10-04T07:43:27.752Z,99907.34
2022-10-04T07:46:03.956Z,99904.78
2022-10-04T07:48:31.050Z,99902.03
2022-10-04T07:51:26.255Z,99907.34
2022-10-04T07:54:03.081Z,99906.25
2022-10-04T07:56:47.718Z,99905.28
2022-10-04T07:59:37.014Z,99894.56
2022-10-04T08:02:19.328Z,99895.38
2022-10-04T08:04:59.764Z,99892.63
2022-10-04T08:07:37.100Z,99888.03
2022-10-04T08:10:15.198Z,99897.78
2022-10-04T08:12:54.347Z,99894.28
2022-10-04T08:15:40.879Z,99897.22
2022-10-04T08:18:31.505Z,99904.91
2022-10-04T08:20:59.778Z,99900.44
2022-10-04T08:23:58.066Z,99876.56
2022-10-04T08:27:02.388Z,99889.59
2022-10-04T08:29:44.229Z,99891.31
2022-10-04T08:32:23.531Z,99878.97
2022-10-04T08:35:17.095Z,99881.41
2022-10-04T08:38:09.929Z,99865.34
2022-10-04T08:40:58.689Z,99859.31
2022-10-04T08:43:49.865Z,99861.97
2022-10-04T08:46:40.702Z,99849.31
2022-10-04T08:49:49.064Z,99828.19
2022-10-04T08:52:34.143Z,99828.19
2022-10-04T08:55:21.298Z,99787.19
2022-10-04T08:58:09.790Z,99765.00
2022-10-04T09:01:17.674Z,99783.69
2022-10-04T09:03:57.525Z,99831.34
2022-10-04T09:06:53.899Z,99832.06
2022-10-04T09:10:07.864Z,99839.03
2022-10-04T09:12:49.729Z,99832.78
2022-10-04T09:15:35.578Z,99825.91
2022-10-04T09:18:23.815Z,99827.47
2022-10-04T09:21:17.064Z,99829.19
2022-10-04T09:24:02.311Z,99823.72
2022-10-04T09:26:33.534Z,99833.41
2022-10-04T09:29:31.551Z,99834.25
2022-10-04T09:32:01.136Z,99844.84
2022-10-04T09:34:47.041Z,99848.34
2022-10-04T09:37:25.278Z,99849.09
2022-10-04T09:40:14.145Z,99845.44
2022-10-04T09:42:58.487Z,99846.28
2022-10-04T09:45:49.974Z,99837.63
2022-10-04T09:48:30.034Z,99839.28
2022-10-04T09:50:57.063Z,99844.59
2022-10-04T09:54:02.333Z,99857.03
2022-10-04T09:57:02.887Z,99845.56
2022-10-04T09:59:58.269Z,99864.16
2022-10-04T10:02:40.714Z,99861.50
2022-10-04T10:05:48.516Z,99847.38
2022-10-04T10:08:33.939Z,99812.72
2022-10-04T10:11:53.703Z,99843.63
2022-10-04T10:14:35.989Z,99845.44
2022-10-04T10:17:21.748Z,99855.97
2022-10-04T10:19:57.885Z,99849.56
2022-10-04T10:22:44.279Z,99850.38
2022-10-04T10:25:45.196Z,99865.25
2022-10-04T10:28:40.054Z,99871.38
2022-10-04T10:31:18.492Z,99880.19
2022-10-04T10:34:08.073Z,99887.06
2022-10-04T10:36:44.417Z,99855.34
2022-10-04T10:39:46.771Z,99864.16
2022-10-04T10:42:32.068Z,99860.41
2022-10-04T10:45:09.643Z,99870.19
2022-10-04T10:47:56.541Z,99857.63
2022-10-04T10:50:58.935Z,99862.94
2022-10-04T10:53:50.773Z,99837.22
2022-10-04T10:56:32.932Z,99833.63
2022-10-04T10:59:53.406Z,99838.78
2022-10-04T11:02:48.713Z,99848.47
2022-10-04T11:05:41.924Z,99861.47
2022-10-04T11:08:30.420Z,99863.31
2022-10-04T11:11:15.610Z,99861.34
2022-10-04T11:13:48.994Z,99865.81
2022-10-04T11:16:34.650Z,99863.31
2022-10-04T11:19:43.797Z,99870.19
2022-10-04T11:22:10.714Z,99873.66
2022-10-04T11:25:04.958Z,99873.53
2022-10-04T11:27:50.663Z,99876.19
2022-10-04T11:30:27.036Z,99869.09
2022-10-04T11:33:18.536Z,99872.69
2022-10-04T11:36:24.827Z,99883.22
2022-10-04T11:38:57.522Z,99883.22
2022-10-04T11:41:39.923Z,99896.50
2022-10-04T11:44:19.210Z,99906.75
2022-10-04T11:46:49.776Z,99906.13
2022-10-04T11:49:39.058Z,99903.47
2022-10-04T11:52:16.580Z,99912.16
2022-10-04T11:55:22.441Z,99905.19
2022-10-04T11:58:06.452Z,99901.66
2022-10-04T12:01:14.723Z,99909.50
2022-10-04T12:04:09.997Z,99906.59
2022-10-04T12:06:48.987Z,99902.28
2022-10-04T12:09:29.319Z,99896.72
2022-10-04T12:12:38.123Z,99881.59
2022-10-04T12:15:20.867Z,99878.84
2022-10-04T12:17:57.606Z,99883.31
2022-10-04T12:20:58.865Z,99916.13
2022-10-04T12:23:45.147Z,99915.03
2022-10-04T12:26:48.013Z,99915.03
2022-10-04T12:29:40.708Z,99917.69
2022-10-04T12:32:16.743Z,99914.56
2022-10-04T12:35:05.027Z,99912.38
2022-10-04T12:37:43.903Z,99919.41
2022-10-04T12:40:11.026Z,99924.72
2022-10-04T12:42:43.973Z,99929.06
2022-10-04T12:45:29.480Z,99927.38
2022-10-04T12:48:08.881Z,99935.34
2022-10-04T12:50:54.714Z,99946.81
2022-10-04T12:53:47.338Z,99941.38
2022-10-04T12:56:38.995Z,99938.00
2022-10-04T12:59:12.160Z,99961.66
2022-10-04T13:01:50.572Z,99956.34
2022-10-04T13:04:29.600Z,99961.66
2022-10-04T13:07:14.504Z,99963.47
2022-10-04T13:09:59.751Z,99972.28
2022-10-04T13:12:53.270Z,99976.63
2022-10-04T13:17:24.742Z,99982.91
2022-10-04T13:18:40.941Z,99989.91
2022-10-04T13:21:41.753Z,99976.75
2022-10-04T13:24:55.553Z,99978.31
2022-10-04T13:27:35.183Z,99972.06
2022-10-04T13:30:07.728Z,99985.19
2022-10-04T13:32:44.022Z,99989.47
2022-10-04T13:35:37.079Z,99997.34
2022-10-04T13:38:54.231Z,100001.56
2022-10-04T13:41:52.811Z,100003.97
2022-10-04T13:44:39.904Z,100002.13
2022-10-04T13:47:38.430Z,99998.28
2022-10-04T13:50:22.623Z,99989.94
2022-10-04T13:53:36.084Z,99996.72
2022-10-04T13:56:30.730Z,100014.22
2022-10-04T13:59:20.210Z,100044.78
2022-10-04T14:02:14.285Z,100042.72
2022-10-04T14:05:20.739Z,100036.31
2022-10-04T14:08:12.850Z,100022.91
2022-10-04T14:11:31.297Z,100036.78
2022-10-04T14:14:02.479Z,100046.22
2022-10-04T14:17:14.814Z,100029.16
2022-10-04T14:20:01.441Z,100024.47
2022-10-04T14:22:34.806Z,100019.13
2022-10-04T14:25:11.590Z,100022.75
2022-10-04T14:28:17.447Z,100026.28
2022-10-04T14:31:08.654Z,100026.13
2022-10-04T14:34:00.670Z,100018.91
2022-10-04T14:36:54.390Z,100029.72
2022-10-04T14:39:43.424Z,100030.47
2022-10-04T14:42:19.724Z,100032.75
2022-10-04T14:45:33.875Z,100039.25
2022-10-04T14:48:47.036Z,100032.59
2022-10-04T14:51:36.298Z,100042.28
2022-10-04T14:54:27.260Z,100051.56
2022-10-04T14:57:26.580Z,100057.59
2022-10-04T15:00:03.726Z,100051.81
2022-10-04T15:02:33.840Z,100053.38
2022-10-04T15:05:20.335Z,100058.47
2022-10-04T15:07:53.068Z,100059.88
2022-10-04T15:10:25.449Z,100054.31
2022-10-04T15:13:26.763Z,100057.56
2022-10-04T15:15:54.623Z,100052.81
2022-10-04T15:18:38.201Z,100052.56
2022-10-04T15:21:23.741Z,100070.00
2022-10-04T15:23:57.787Z,100065.38
2022-10-04T15:26:30.563Z,100058.94
2022-10-04T15:29:24.387Z,100066.69
2022-10-04T15:32:03.073Z,100058.56
2022-10-04T15:34:47.515Z,100064.47
2022-10-04T15:37:17.077Z,100044.88
2022-10-04T15:40:02.486Z,100053.69
2022-10-04T15:42:34.209Z,100053.56
2022-10-04T15:45:18.054Z,100058.06
2022-10-04T15:48:00.257Z,100060.13
2022-10-04T15:50:42.332Z,100054.53
2022-10-04T15:53:24.495Z,100053.44
2022-10-04T15:56:14.359Z,100063.38
2022-10-04T15:59:07.734Z,100056.34
2022-10-04T16:01:55.510Z,100064.47
2022-10-04T16:04:37.958Z,100070.06
2022-10-04T16:07:08.296Z,100084.47
2022-10-04T16:09:39.460Z,100088.44
2022-10-04T16:12:22.339Z,100088.59
2022-10-04T16:14:52.764Z,100087.13
2022-10-04T16:17:22.499Z,100084.59
2022-10-04T16:20:02.843Z,100092.59
2022-10-04T16:22:35.117Z,100097.47
2022-10-04T16:25:26.892Z,100095.75
2022-10-04T16:28:08.632Z,100093.59
2022-10-04T16:30:44.494Z,100096.63
2022-10-04T16:33:31.661Z,100101.25
2022-10-04T16:36:13.997Z,100110.19
2022-10-04T16:39:15.722Z,100105.13
2022-10-04T16:41:44.713Z,100092.81
2022-10-04T16:44:35.415Z,100088.44
2022-10-04T16:47:18.218Z,100091.59
2022-10-04T16:49:55.384Z,100081.94
2022-10-04T16:52:35.404Z,100079.50
2022-10-04T16:55:35.721Z,100093.75
2022-10-04T16:58:27.384Z,100083.84
2022-10-04T17:01:28.767Z,100089.19
2022-10-04T17:04:00.096Z,100094.16
2022-10-04T17:06:52.345Z,100087.47
2022-10-04T17:09:25.400Z,100090.84
2022-10-04T17:11:55.100Z,100093.03
2022-10-04T17:14:55.350Z,100078.63
2022-10-04T17:17:33.761Z,100077.50
2022-10-04T17:20:41.937Z,100068.03
2022-10-04T17:23:39.725Z,100063.88
2022-10-04T17:26:38.572Z,100064.34
2022-10-04T17:29:32.028Z,100069.41
2022-10-04T17:32:26.140Z,100073.53
2022-10-04T17:35:15.741Z,100067.94
2022-10-04T17:38:01.223Z,100064.19
2022-10-04T17:40:49.641Z,100068.66
2022-10-04T17:44:03.821Z,100071.06
2022-10-04T17:46:30.921Z,100072.47
2022-10-04T17:49:30.917Z,100076.44
2022-10-04T17:52:23.367Z,100070.25
2022-10-04T17:55:17.517Z,100079.00
2022-10-04T17:58:05.781Z,100079.56
2022-10-04T18:01:07.957Z,100082.94
2022-10-04T18:03:52.618Z,100085.47
2022-10-04T18:06:44.378Z,100077.50
2022-10-04T18:09:18.415Z,100072.16
2022-10-04T18:12:00.085Z,100065.59
2022-10-04T18:14:36.838Z,100076.25
2022-10-04T18:17:13.909Z,100080.22
2022-10-04T18:19:43.548Z,100086.38
2022-10-04T18:22:10.573Z,100083.88
2022-10-04T18:24:37.730Z,100082.50
2022-10-04T18:27:16.090Z,100082.75
2022-10-04T18:30:04.830Z,100087.94
2022-10-04T18:32:37.111Z,100091.47
2022-10-04T18:35:28.923Z,100100.69
2022-10-04T18:38:05.123Z,100112.19
2022-10-04T18:40:42.385Z,100093.53
2022-10-04T18:43:36.320Z,100112.31
2022-10-04T18:46:22.546Z,100109.50
2022-10-04T18:49:26.765Z,100097.03
2022-10-04T18:52:14.639Z,100087.09
2022-10-04T18:55:06.359Z,100095.09
2022-10-04T18:57:58.690Z,100074.63
2022-10-04T19:00:52.302Z,100078.88
2022-10-04T19:04:06.251Z,100078.88
2022-10-04T19:06:37.013Z,100067.97
2022-10-04T19:09:12.523Z,100058.84
2022-10-04T19:12:02.965Z,100057.75
2022-10-04T19:14:52.072Z,100054.97
2022-10-04T19:17:30.201Z,100048.38
2022-10-04T19:20:18.668Z,100055.06
2022-10-04T19:23:00.451Z,100058.25
2022-10-04T19:26:32.171Z,100074.59
2022-10-04T19:29:37.495Z,100063.50
2022-10-04T19:32:10.371Z,100064.81
2022-10-04T19:34:54.677Z,100048.44
2022-10-04T19:37:33.793Z,100038.34
2022-10-04T19:40:17.875Z,100030.59
2022-10-04T19:43:07.745Z,100019.81
2022-10-04T19:46:03.112Z,100033.00
2022-10-04T19:48:39.486Z,100019.81
2022-10-04T19:51:21.181Z,100003.81
2022-10-04T19:53:50.996Z,100002.13
2022-10-04T19:56:19.546Z,99994.13
2022-10-04T19:58:56.715Z,99999.63
2022-10-04T20:01:26.432Z,100003.81
2022-10-04T20:04:13.477Z,100024.31
2022-10-04T20:06:54.976Z,100022.75
2022-10-04T20:09:35.961Z,100013.91
2022-10-04T20:12:05.250Z,100013.31
2022-10-04T20:14:32.641Z,100019.50
2022-10-04T20:17:04.198Z,100023.28
2022-10-04T20:19:41.686Z,100023.53
2022-10-04T20:22:19.084Z,100013.63
2022-10-04T20:24:51.275Z,100009.94
2022-10-04T20:27:28.830Z,99998.72
2022-10-04T20:29:59.485Z,100002.22
2022-10-04T20:32:39.112Z,100004.06
2022-10-04T20:35:51.610Z,100002.47
2022-10-04T20:38:32.081Z,100013.03
2022-10-04T20:41:02.276Z,99999.81
2022-10-04T20:43:29.970Z,99999.78
2022-10-04T20:45:59.778Z,99995.78
2022-10-04T20:48:33.057Z,99990.44
2022-10-04T20:51:10.470Z,99986.47
2022-10-04T20:53:47.111Z,99978.03
2022-10-04T20:56:29.683Z,99960.16
2022-10-04T20:59:03.771Z,99959.47
2022-10-04T21:01:36.838Z,99956.34
2022-10-04T21:04:20.485Z,99950.59
2022-10-04T21:06:57.437Z,99950.13
2022-10-04T21:09:28.526Z,99946.19
2022-10-04T21:11:57.248Z,99938.00
2022-10-04T21:14:31.398Z,99946.09
2022-10-04T21:17:07.751Z,99940.22
2022-10-04T21:19:43.412Z,99928.00
2022-10-04T21:22:17.782Z,99922.78
2022-10-04T21:25:26.704Z,99910.72
2022-10-04T21:27:54.104Z,99911.09
2022-10-04T21:30:21.285Z,99912.34
2022-10-04T21:32:48.589Z,99905.59
2022-10-04T21:35:25.754Z,99895.16
2022-10-04T21:37:53.278Z,99898.09
2022-10-04T21:40:20.366Z,99890.13
2022-10-04T21:42:47.406Z,99892.34
2022-10-04T21:45:15.327Z,99888.09
2022-10-04T21:47:42.803Z,99887.53
2022-10-04T21:50:10.726Z,99886.91
2022-10-04T21:52:37.748Z,99879.09
2022-10-04T21:55:10.742Z,99871.47
2022-10-04T21:57:38.260Z,99858.31
2022-10-04T22:00:05.971Z,99853.25
2022-10-04T22:02:33.281Z,99842.88
2022-10-04T22:05:00.420Z,99840.91
2022-10-04T22:07:28.634Z,99835.88
2022-10-04T22:09:55.751Z,99830.94
2022-10-04T22:12:22.674Z,99829.38
2022-10-04T22:14:49.776Z,99833.03
2022-10-04T22:17:16.741Z,99812.72
2022-10-04T22:19:43.680Z,99802.31
2022-10-04T22:22:16.324Z,99811.41
2022-10-04T22:24:43.928Z,99817.81
2022-10-04T22:27:14.833Z,99807.19
2022-10-04T22:29:42.812Z,99810.09
2022-10-04T22:32:24.166Z,99792.59
2022-10-04T22:34:52.769Z,99786.44
2022-10-04T22:37:24.912Z,99781.38
2022-10-04T22:39:53.332Z,99778.25
2022-10-04T22:42:22.111Z,99783.31
2022-10-04T22:44:48.994Z,99771.28
2022-10-04T22:47:16.288Z,99763.41
2022-10-04T22:49:45.494Z,99746.75
2022-10-04T22:52:18.460Z,99743.25
2022-10-04T22:54:50.691Z,99747.72
2022-10-04T22:57:19.589Z,99745.19
2022-10-04T22:59:51.749Z,99731.06
2022-10-04T23:02:29.595Z,99722.53
2022-10-04T23:05:01.395Z,99719.97
2022-10-04T23:07:28.356Z,99712.16
2022-10-04T23:09:55.271Z,99705.13
2022-10-04T23:12:22.144Z,99692.56
2022-10-04T23:14:49.059Z,99686.53
2022-10-04T23:17:23.609Z,99668.91
2022-10-04T23:19:56.511Z,99649.47
2022-10-04T23:22:28.363Z,99627.50
2022-10-04T23:24:56.472Z,99639.09
2022-10-04T23:27:23.967Z,99619.78
2022-10-04T23:30:01.129Z,99611.94
2022-10-04T23:32:28.643Z,99601.59
2022-10-04T23:34:56.815Z,99582.88
2022-10-04T23:37:27.562Z,99558.34
2022-10-04T23:39:54.530Z,99573.34
2022-10-04T23:42:29.932Z,99579.59
2022-10-04T23:45:01.752Z,99570.19
2022-10-04T23:47:36.355Z,99559.56
2022-10-04T23:50:16.484Z,99536.06
2022-10-04T23:52:43.518Z,99509.50
2022-10-04T23:55:24.644Z,99506.13
2022-10-04T23:57:51.476Z,99498.31
